Time,TemperatureF,DewpointF,PressureIn,WindDirection,WindDirectionDegrees,WindSpeedMPH,WindSpeedGustMPH,Humidity,HourlyPrecipIn,Conditions,Clouds,dailyrainin,SoftwareType,DateUTC
2013-05-04 00:02:00,65.0,42.0,-100.00,ESE,120,6.0,12.0,43,0.00,,,-99.99,,2013-05-04 04:02:00,
2013-05-04 00:12:00,65.0,43.0,-100.00,ESE,105,8.0,12.0,44,0.00,,,-99.99,,2013-05-04 04:12:00,
2013-05-04 00:22:00,64.0,43.0,-100.00,SE,135,6.0,10.0,46,0.00,,,-99.99,,2013-05-04 04:22:00,
2013-05-04 00:33:00,64.0,43.0,-100.00,SE,135,5.0,12.0,46,0.00,,,-99.99,,2013-05-04 04:33:00,
2013-05-04 00:42:00,64.0,43.0,-100.00,SE,130,6.0,11.0,47,0.00,,,-99.99,,2013-05-04 04:42:00,
2013-05-04 00:52:00,63.0,44.0,-100.00,SE,130,5.0,11.0,48,0.00,,,-99.99,,2013-05-04 04:52:00,
2013-05-04 01:02:00,63.0,44.0,-100.00,ESE,115,7.0,9.0,49,0.00,,,-99.99,,2013-05-04 05:02:00,
2013-05-04 01:12:00,62.0,44.0,-100.00,ESE,110,6.0,8.0,50,0.00,,,-99.99,,2013-05-04 05:12:00,
2013-05-04 01:22:00,62.0,44.0,-100.00,ESE,120,6.0,9.0,50,0.00,,,-99.99,,2013-05-04 05:22:00,
2013-05-04 01:32:00,62.0,44.0,-100.00,ESE,115,4.0,9.0,51,0.00,,,-99.99,,2013-05-04 05:32:00,
2013-05-04 01:42:00,62.0,44.0,-100.00,ESE,120,4.0,8.0,51,0.00,,,-99.99,,2013-05-04 05:42:00,
2013-05-04 01:52:00,62.0,44.0,-100.00,ESE,115,4.0,7.0,52,0.00,,,-99.99,,2013-05-04 05:52:00,
2013-05-04 02:01:00,61.0,44.0,-100.00,ESE,120,6.0,9.0,52,0.00,,,-99.99,,2013-05-04 06:01:00,
2013-05-04 02:11:00,61.0,44.0,-100.00,SE,125,5.0,8.0,53,0.00,,,-99.99,,2013-05-04 06:11:00,
2013-05-04 02:21:00,60.0,44.0,-100.00,ESE,115,4.0,6.0,55,0.00,,,-99.99,,2013-05-04 06:21:00,
2013-05-04 02:32:00,60.0,44.0,-100.00,ESE,110,6.0,8.0,55,0.00,,,-99.99,,2013-05-04 06:32:00,
2013-05-04 02:42:00,60.0,44.0,-100.00,SE,125,6.0,11.0,54,0.00,,,-99.99,,2013-05-04 06:42:00,
2013-05-04 02:52:00,60.0,44.0,-100.00,SE,130,4.0,11.0,54,0.00,,,-99.99,,2013-05-04 06:52:00,
2013-05-04 03:01:00,60.0,44.0,-100.00,ESE,105,2.0,11.0,55,0.00,,,-99.99,,2013-05-04 07:01:00,
2013-05-04 03:11:00,59.0,44.0,-100.00,ESE,115,4.0,7.0,55,0.00,,,-99.99,,2013-05-04 07:11:00,
2013-05-04 03:21:00,59.0,44.0,-100.00,ESE,110,4.0,9.0,56,0.00,,,-99.99,,2013-05-04 07:21:00,
2013-05-04 03:32:00,59.0,44.0,-100.00,ESE,110,6.0,11.0,56,0.00,,,-99.99,,2013-05-04 07:32:00,
2013-05-04 03:42:00,59.0,44.0,-100.00,East,90,4.0,6.0,57,0.00,,,-99.99,,2013-05-04 07:42:00,
2013-05-04 03:52:00,58.0,44.0,-100.00,ENE,65,4.0,6.0,58,0.00,,,-99.99,,2013-05-04 07:52:00,
2013-05-04 04:02:00,58.0,43.0,-100.00,NE,55,2.0,7.0,58,0.00,,,-99.99,,2013-05-04 08:02:00,
2013-05-04 04:11:00,57.0,44.0,-100.00,NE,50,2.0,4.0,60,0.00,,,-99.99,,2013-05-04 08:11:00,
2013-05-04 04:21:00,57.0,43.0,-100.00,NE,40,2.0,3.0,60,0.00,,,-99.99,,2013-05-04 08:21:00,
2013-05-04 04:32:00,56.0,44.0,-100.00,NE,55,2.0,4.0,62,0.00,,,-99.99,,2013-05-04 08:32:00,
2013-05-04 04:42:00,57.0,43.0,-100.00,East,80,4.0,9.0,60,0.00,,,-99.99,,2013-05-04 08:42:00,
2013-05-04 04:52:00,57.0,43.0,-100.00,East,100,6.0,9.0,59,0.00,,,-99.99,,2013-05-04 08:52:00,
2013-05-04 05:02:00,57.0,43.0,-100.00,East,85,5.0,11.0,58,0.00,,,-99.99,,2013-05-04 09:02:00,
2013-05-04 05:11:00,57.0,42.0,-100.00,ESE,110,6.0,9.0,57,0.00,,,-99.99,,2013-05-04 09:11:00,
2013-05-04 05:22:00,57.0,42.0,-100.00,East,90,7.0,11.0,57,0.00,,,-99.99,,2013-05-04 09:22:00,
2013-05-04 05:32:00,57.0,42.0,-100.00,East,100,6.0,11.0,57,0.00,,,-99.99,,2013-05-04 09:32:00,
2013-05-04 05:42:00,56.0,42.0,-100.00,East,85,4.0,9.0,57,0.00,,,-99.99,,2013-05-04 09:42:00,
2013-05-04 05:52:00,56.0,41.0,-100.00,East,80,4.0,7.0,57,0.00,,,-99.99,,2013-05-04 09:52:00,
2013-05-04 06:03:00,56.0,41.0,-100.00,East,80,4.0,7.0,58,0.00,,,-99.99,,2013-05-04 10:03:00,
2013-05-04 06:12:00,55.0,41.0,-100.00,ENE,75,5.0,7.0,60,0.00,,,-99.99,,2013-05-04 10:12:00,
2013-05-04 06:23:00,56.0,41.0,-100.00,ESE,105,11.0,15.0,57,0.00,,,-99.99,,2013-05-04 10:23:00,
2013-05-04 06:33:00,55.0,41.0,-100.00,East,85,6.0,14.0,58,0.00,,,-99.99,,2013-05-04 10:33:00,
2013-05-04 06:42:00,55.0,41.0,-100.00,East,80,6.0,9.0,59,0.00,,,-99.99,,2013-05-04 10:42:00,
2013-05-04 06:52:00,55.0,42.0,-100.00,East,80,7.0,10.0,61,0.00,,,-99.99,,2013-05-04 10:52:00,
2013-05-04 07:02:00,55.0,42.0,-100.00,East,85,6.0,11.0,62,0.00,,,-99.99,,2013-05-04 11:02:00,
2013-05-04 07:11:00,55.0,42.0,-100.00,East,90,7.0,13.0,62,0.00,,,-99.99,,2013-05-04 11:11:00,
2013-05-04 07:21:00,54.0,42.0,-100.00,ENE,70,6.0,11.0,63,0.00,,,-99.99,,2013-05-04 11:21:00,
2013-05-04 07:32:00,54.0,42.0,-100.00,East,80,6.0,12.0,64,0.00,,,-99.99,,2013-05-04 11:32:00,
2013-05-04 07:44:00,54.0,42.0,-100.00,East,80,6.0,9.0,63,0.00,,,-99.99,,2013-05-04 11:44:00,
2013-05-04 07:56:00,54.0,42.0,-100.00,East,90,6.0,14.0,63,0.00,,,-99.99,,2013-05-04 11:56:00,
2013-05-04 08:14:00,54.0,42.0,-100.00,ENE,75,6.0,14.0,63,0.00,,,-99.99,,2013-05-04 12:14:00,
2013-05-04 08:29:00,54.0,41.0,-100.00,ENE,65,7.0,12.0,61,0.00,,,-99.99,,2013-05-04 12:29:00,
2013-05-04 08:37:00,54.0,41.0,-100.00,East,80,7.0,12.0,61,0.00,,,-99.99,,2013-05-04 12:37:00,
2013-05-04 08:51:00,55.0,40.0,-100.00,East,95,7.0,14.0,58,0.00,,,-99.99,,2013-05-04 12:51:00,
2013-05-04 09:01:00,55.0,39.0,-100.00,East,95,11.0,22.0,54,0.00,,,-99.99,,2013-05-04 13:01:00,
2013-05-04 09:11:00,56.0,39.0,-100.00,ESE,110,7.0,13.0,52,0.00,,,-99.99,,2013-05-04 13:11:00,
2013-05-04 09:21:00,58.0,38.0,-100.00,East,100,10.0,19.0,48,0.00,,,-99.99,,2013-05-04 13:21:00,
2013-05-04 09:32:00,58.0,39.0,-100.00,ESE,115,12.0,21.0,49,0.00,,,-99.99,,2013-05-04 13:32:00,
2013-05-04 09:42:00,57.0,37.0,-100.00,ESE,120,10.0,22.0,47,0.00,,,-99.99,,2013-05-04 13:42:00,
2013-05-04 09:52:00,57.0,37.0,-100.00,SE,125,10.0,21.0,47,0.00,,,-99.99,,2013-05-04 13:52:00,
2013-05-04 10:02:00,57.0,37.0,-100.00,ESE,110,11.0,19.0,47,0.00,,,-99.99,,2013-05-04 14:02:00,
2013-05-04 10:11:00,59.0,39.0,-100.00,ESE,105,6.0,16.0,48,0.00,,,-99.99,,2013-05-04 14:11:00,
2013-05-04 10:21:00,58.0,39.0,-100.00,East,100,9.0,16.0,48,0.00,,,-99.99,,2013-05-04 14:21:00,
2013-05-04 10:32:00,59.0,40.0,-100.00,SE,125,8.0,16.0,48,0.00,,,-99.99,,2013-05-04 14:32:00,
2013-05-04 10:42:00,60.0,40.0,-100.00,SE,130,7.0,15.0,48,0.00,,,-99.99,,2013-05-04 14:42:00,
2013-05-04 10:51:00,60.0,41.0,-100.00,ESE,115,9.0,13.0,48,0.00,,,-99.99,,2013-05-04 14:51:00,
2013-05-04 11:02:00,61.0,41.0,-100.00,East,100,9.0,14.0,47,0.00,,,-99.99,,2013-05-04 15:02:00,
2013-05-04 11:12:00,63.0,42.0,-100.00,East,100,10.0,16.0,46,0.00,,,-99.99,,2013-05-04 15:12:00,
2013-05-04 11:22:00,63.0,42.0,-100.00,ESE,120,9.0,17.0,46,0.00,,,-99.99,,2013-05-04 15:22:00,
2013-05-04 11:33:00,64.0,42.0,-100.00,ESE,105,9.0,16.0,44,0.00,,,-99.99,,2013-05-04 15:33:00,
2013-05-04 11:43:00,64.0,42.0,-100.00,ESE,120,11.0,17.0,44,0.00,,,-99.99,,2013-05-04 15:43:00,
2013-05-04 11:52:00,63.0,42.0,-100.00,ESE,115,13.0,20.0,45,0.00,,,-99.99,,2013-05-04 15:52:00,
2013-05-04 12:03:00,64.0,44.0,-100.00,ESE,110,8.0,20.0,47,0.00,,,-99.99,,2013-05-04 16:03:00,
2013-05-04 12:12:00,64.0,43.0,-100.00,East,95,10.0,16.0,45,0.00,,,-99.99,,2013-05-04 16:12:00,
2013-05-04 12:22:00,64.0,42.0,-100.00,East,85,11.0,16.0,45,0.00,,,-99.99,,2013-05-04 16:22:00,
2013-05-04 12:33:00,64.0,43.0,-100.00,East,100,9.0,14.0,46,0.00,,,-99.99,,2013-05-04 16:33:00,
2013-05-04 12:42:00,65.0,44.0,-100.00,ENE,70,13.0,19.0,45,0.00,,,-99.99,,2013-05-04 16:42:00,
2013-05-04 12:52:00,65.0,44.0,-100.00,ESE,110,12.0,17.0,47,0.00,,,-99.99,,2013-05-04 16:52:00,
2013-05-04 13:02:00,66.0,44.0,-100.00,ESE,110,12.0,20.0,45,0.00,,,-99.99,,2013-05-04 17:02:00,
2013-05-04 13:12:00,66.0,44.0,-100.00,ESE,105,14.0,24.0,44,0.00,,,-99.99,,2013-05-04 17:12:00,
2013-05-04 13:22:00,65.0,43.0,-100.00,ESE,110,10.0,16.0,44,0.00,,,-99.99,,2013-05-04 17:22:00,
2013-05-04 13:32:00,67.0,44.0,-100.00,East,100,11.0,16.0,44,0.00,,,-99.99,,2013-05-04 17:32:00,
2013-05-04 13:42:00,67.0,44.0,-100.00,East,85,10.0,17.0,44,0.00,,,-99.99,,2013-05-04 17:42:00,
2013-05-04 13:52:00,67.0,44.0,-100.00,ESE,110,10.0,19.0,43,0.00,,,-99.99,,2013-05-04 17:52:00,
2013-05-04 14:01:00,67.0,43.0,-100.00,SE,125,12.0,19.0,41,0.00,,,-99.99,,2013-05-04 18:01:00,
2013-05-04 14:12:00,66.0,44.0,-100.00,ESE,110,9.0,22.0,44,0.00,,,-99.99,,2013-05-04 18:12:00,
2013-05-04 14:22:00,68.0,45.0,-100.00,SE,135,7.0,16.0,43,0.00,,,-99.99,,2013-05-04 18:22:00,
2013-05-04 14:32:00,69.0,45.0,-100.00,SE,125,8.0,17.0,42,0.00,,,-99.99,,2013-05-04 18:32:00,
2013-05-04 14:42:00,68.0,44.0,-100.00,ESE,115,11.0,17.0,41,0.00,,,-99.99,,2013-05-04 18:42:00,
2013-05-04 14:52:00,68.0,45.0,-100.00,SE,130,9.0,23.0,43,0.00,,,-99.99,,2013-05-04 18:52:00,
2013-05-04 15:01:00,69.0,45.0,-100.00,SE,125,9.0,19.0,42,0.00,,,-99.99,,2013-05-04 19:01:00,
2013-05-04 15:11:00,69.0,45.0,-100.00,ESE,105,7.0,16.0,42,0.00,,,-99.99,,2013-05-04 19:11:00,
2013-05-04 15:21:00,70.0,46.0,-100.00,East,100,9.0,17.0,42,0.00,,,-99.99,,2013-05-04 19:21:00,
2013-05-04 15:32:00,71.0,46.0,-100.00,ESE,120,10.0,15.0,40,0.00,,,-99.99,,2013-05-04 19:32:00,
2013-05-04 15:42:00,70.0,46.0,-100.00,East,100,12.0,19.0,41,0.00,,,-99.99,,2013-05-04 19:42:00,
2013-05-04 15:52:00,71.0,46.0,-100.00,East,90,9.0,19.0,41,0.00,,,-99.99,,2013-05-04 19:52:00,
2013-05-04 16:02:00,70.0,45.0,-100.00,ESE,115,12.0,20.0,40,0.00,,,-99.99,,2013-05-04 20:02:00,
2013-05-04 16:11:00,70.0,46.0,-100.00,East,85,9.0,19.0,41,0.00,,,-99.99,,2013-05-04 20:11:00,
2013-05-04 16:22:00,71.0,46.0,-100.00,ESE,110,9.0,17.0,41,0.00,,,-99.99,,2013-05-04 20:22:00,
2013-05-04 16:32:00,71.0,45.0,-100.00,East,100,14.0,19.0,39,0.00,,,-99.99,,2013-05-04 20:32:00,
2013-05-04 16:42:00,71.0,45.0,-100.00,ESE,120,9.0,16.0,39,0.00,,,-99.99,,2013-05-04 20:42:00,
2013-05-04 16:52:00,71.0,46.0,-100.00,East,100,15.0,21.0,40,0.00,,,-99.99,,2013-05-04 20:52:00,
2013-05-04 17:02:00,71.0,46.0,-100.00,ESE,105,13.0,20.0,40,0.00,,,-99.99,,2013-05-04 21:02:00,
2013-05-04 17:12:00,71.0,45.0,-100.00,SE,125,8.0,22.0,39,0.00,,,-99.99,,2013-05-04 21:12:00,
2013-05-04 17:22:00,72.0,46.0,-100.00,ESE,120,9.0,16.0,39,0.00,,,-99.99,,2013-05-04 21:22:00,
2013-05-04 17:33:00,71.0,46.0,-100.00,East,100,9.0,17.0,40,0.00,,,-99.99,,2013-05-04 21:33:00,
2013-05-04 17:43:00,71.0,44.0,-100.00,SE,135,7.0,17.0,38,0.00,,,-99.99,,2013-05-04 21:43:00,
2013-05-04 17:53:00,71.0,45.0,-100.00,East,95,10.0,16.0,38,0.00,,,-99.99,,2013-05-04 21:53:00,
2013-05-04 18:03:00,71.0,44.0,-100.00,ESE,105,12.0,21.0,37,0.00,,,-99.99,,2013-05-04 22:03:00,
2013-05-04 18:12:00,71.0,44.0,-100.00,ESE,110,12.0,19.0,37,0.00,,,-99.99,,2013-05-04 22:12:00,
2013-05-04 18:22:00,71.0,44.0,-100.00,ESE,110,11.0,20.0,36,0.00,,,-99.99,,2013-05-04 22:22:00,
2013-05-04 18:33:00,71.0,44.0,-100.00,East,95,12.0,17.0,36,0.00,,,-99.99,,2013-05-04 22:33:00,
2013-05-04 18:42:00,71.0,44.0,-100.00,East,100,7.0,18.0,38,0.00,,,-99.99,,2013-05-04 22:42:00,
2013-05-04 18:52:00,71.0,42.0,-100.00,ESE,110,10.0,17.0,35,0.00,,,-99.99,,2013-05-04 22:52:00,
2013-05-04 19:02:00,71.0,42.0,-100.00,ESE,110,10.0,17.0,35,0.00,,,-99.99,,2013-05-04 23:02:00,
2013-05-04 19:12:00,71.0,42.0,-100.00,East,95,7.0,11.0,35,0.00,,,-99.99,,2013-05-04 23:12:00,
2013-05-04 19:22:00,70.0,41.0,-100.00,East,90,7.0,14.0,34,0.00,,,-99.99,,2013-05-04 23:22:00,
2013-05-04 19:32:00,69.0,41.0,-100.00,East,85,7.0,13.0,35,0.00,,,-99.99,,2013-05-04 23:32:00,
2013-05-04 19:42:00,69.0,42.0,-100.00,ENE,70,8.0,12.0,37,0.00,,,-99.99,,2013-05-04 23:42:00,
2013-05-04 19:52:00,69.0,41.0,-100.00,ENE,75,7.0,11.0,37,0.00,,,-99.99,,2013-05-04 23:52:00,
2013-05-04 20:02:00,68.0,42.0,-100.00,ENE,65,6.0,10.0,38,0.00,,,-99.99,,2013-05-05 00:02:00,
2013-05-04 20:11:00,68.0,42.0,-100.00,ENE,70,5.0,9.0,39,0.00,,,-99.99,,2013-05-05 00:11:00,
2013-05-04 20:21:00,67.0,42.0,-100.00,ENE,65,4.0,9.0,39,0.00,,,-99.99,,2013-05-05 00:21:00,
2013-05-04 20:32:00,67.0,41.0,-100.00,NE,50,4.0,6.0,39,0.00,,,-99.99,,2013-05-05 00:32:00,
2013-05-04 20:42:00,66.0,41.0,-100.00,ENE,65,6.0,9.0,39,0.00,,,-99.99,,2013-05-05 00:42:00,
2013-05-04 20:51:00,66.0,41.0,-100.00,ENE,65,4.0,7.0,39,0.00,,,-99.99,,2013-05-05 00:51:00,
2013-05-04 21:01:00,66.0,40.0,-100.00,ENE,60,4.0,9.0,38,0.00,,,-99.99,,2013-05-05 01:01:00,
2013-05-04 21:11:00,65.0,40.0,-100.00,ENE,60,4.0,7.0,39,0.00,,,-99.99,,2013-05-05 01:11:00,
2013-05-04 21:21:00,65.0,40.0,-100.00,ENE,60,4.0,5.0,39,0.00,,,-99.99,,2013-05-05 01:21:00,
2013-05-04 21:32:00,64.0,40.0,-100.00,ENE,65,3.0,6.0,40,0.00,,,-99.99,,2013-05-05 01:32:00,
2013-05-04 21:42:00,64.0,40.0,-100.00,ENE,60,2.0,5.0,40,0.00,,,-99.99,,2013-05-05 01:42:00,
2013-05-04 21:52:00,64.0,40.0,-100.00,NE,45,1.0,3.0,41,0.00,,,-99.99,,2013-05-05 01:52:00,
2013-05-04 22:02:00,63.0,39.0,-100.00,ENE,60,3.0,5.0,41,0.00,,,-99.99,,2013-05-05 02:02:00,
2013-05-04 22:11:00,62.0,40.0,-100.00,East,85,2.0,5.0,43,0.00,,,-99.99,,2013-05-05 02:11:00,
2013-05-04 22:22:00,62.0,40.0,-100.00,ENE,70,3.0,4.0,44,0.00,,,-99.99,,2013-05-05 02:22:00,
2013-05-04 22:32:00,62.0,40.0,-100.00,ENE,65,5.0,6.0,45,0.00,,,-99.99,,2013-05-05 02:32:00,
2013-05-04 22:42:00,61.0,41.0,-100.00,ENE,75,3.0,7.0,46,0.00,,,-99.99,,2013-05-05 02:42:00,
2013-05-04 22:52:00,62.0,42.0,-100.00,ENE,70,3.0,6.0,47,0.00,,,-99.99,,2013-05-05 02:52:00,
2013-05-04 23:01:00,61.0,42.0,-100.00,ENE,75,3.0,6.0,48,0.00,,,-99.99,,2013-05-05 03:01:00,
2013-05-04 23:11:00,61.0,42.0,-100.00,East,85,4.0,7.0,49,0.00,,,-99.99,,2013-05-05 03:11:00,
2013-05-04 23:22:00,62.0,42.0,-100.00,East,80,7.0,9.0,49,0.00,,,-99.99,,2013-05-05 03:22:00,
2013-05-04 23:33:00,62.0,42.0,-100.00,East,85,6.0,12.0,48,0.00,,,-99.99,,2013-05-05 03:33:00,
2013-05-04 23:42:00,62.0,42.0,-100.00,East,80,6.0,12.0,49,0.00,,,-99.99,,2013-05-05 03:42:00,
2013-05-04 23:53:00,62.0,43.0,-100.00,East,100,7.0,12.0,50,0.00,,,-99.99,,2013-05-05 03:53:00,